Time;durP1;ratioP1;P1;durP2;ratioP2;P2;SDS_P1;SDS_P2;PMS_P1;PMS_P2;Temp;Humidity;BMP_temperature;BMP_pressure;BME280_temperature;BME280_humidity;BME280_pressure;Samples;Min_cycle;Max_cycle;Signal;HPM_P1;HPM_P2
2023/12/06 00:02:02;;;;;;;17.93;4.50;;;25.60;63.50;;;;;;4985991;28;20189;-68
2023/12/06 00:04:30;;;;;;;25.13;4.53;;;25.40;64.30;;;;;;4987465;28;20256;-68
2023/12/06 00:06:57;;;;;;;18.10;4.50;;;25.30;64.60;;;;;;4984557;28;20214;-67
2023/12/06 00:09:25;;;;;;;19.60;4.23;;;25.30;64.40;;;;;;4977103;28;20180;-67
2023/12/06 00:11:52;;;;;;;17.13;3.87;;;25.40;64.30;;;;;;4985603;28;20186;-69
2023/12/06 00:14:19;;;;;;;26.90;5.07;;;25.50;64.60;;;;;;4987224;28;20210;-69
2023/12/06 00:16:47;;;;;;;20.60;4.20;;;25.70;64.50;;;;;;4989580;28;20206;-69
2023/12/06 00:19:14;;;;;;;19.33;4.40;;;25.60;64.30;;;;;;4962069;28;20182;-70
2023/12/06 00:21:42;;;;;;;20.17;4.47;;;25.80;64.30;;;;;;4988128;28;20201;-68
2023/12/06 00:24:09;;;;;;;21.30;4.57;;;25.80;63.40;;;;;;4979544;28;20527;-71
2023/12/06 00:26:39;;;;;;;22.13;4.00;;;26.00;61.60;;;;;;4980706;28;20201;-68
2023/12/06 00:29:07;;;;;;;17.17;4.40;;;25.70;61.90;;;;;;4988606;28;20719;-69
2023/12/06 00:31:34;;;;;;;21.93;4.77;;;25.80;63.10;;;;;;4992129;28;20236;-70
2023/12/06 00:34:01;;;;;;;22.83;4.70;;;26.00;63.10;;;;;;4986151;28;20265;-70
2023/12/06 00:36:29;;;;;;;15.37;3.63;;;26.30;61.60;;;;;;4990246;28;20190;-69
2023/12/06 00:38:56;;;;;;;21.60;4.07;;;26.50;59.70;;;;;;4982875;28;20200;-71
2023/12/06 00:41:24;;;;;;;15.03;4.00;;;26.30;59.20;;;;;;4986132;28;20269;-73
2023/12/06 00:43:53;;;;;;;18.60;4.17;;;26.40;60.10;;;;;;4992220;28;21070;-68
2023/12/06 00:46:24;;;;;;;23.60;4.60;;;26.40;60.30;;;;;;4981706;28;20197;-69
2023/12/06 00:48:52;;;;;;;18.33;4.23;;;26.50;60.40;;;;;;4979847;28;20181;-70
2023/12/06 00:51:19;;;;;;;21.30;4.63;;;26.40;59.30;;;;;;4984201;28;20241;-71
2023/12/06 00:53:47;;;;;;;19.80;4.20;;;26.40;60.40;;;;;;4985059;28;20178;-76
2023/12/06 00:56:14;;;;;;;21.30;3.90;;;26.30;60.90;;;;;;4988146;28;20542;-68
2023/12/06 00:58:43;;;;;;;18.53;3.97;;;26.50;60.70;;;;;;4978152;28;20266;-74
2023/12/06 01:01:12;;;;;;;20.37;4.43;;;26.90;59.40;;;;;;4981878;28;20179;-69
2023/12/06 01:03:43;;;;;;;16.53;4.37;;;26.90;58.70;;;;;;4989453;28;20193;-72
2023/12/06 01:06:10;;;;;;;24.00;4.70;;;26.70;59.40;;;;;;4991024;28;20189;-68
2023/12/06 01:08:37;;;;;;;20.10;4.53;;;26.60;58.90;;;;;;4990206;28;20212;-68
2023/12/06 01:11:05;;;;;;;19.60;4.37;;;26.60;59.90;;;;;;4992725;28;20688;-67
2023/12/06 01:13:32;;;;;;;20.73;4.40;;;26.60;60.30;;;;;;4991056;28;20190;-67
2023/12/06 01:15:59;;;;;;;18.63;4.57;;;26.80;58.90;;;;;;4984366;28;20232;-69
2023/12/06 01:18:27;;;;;;;23.67;4.47;;;26.80;58.50;;;;;;4988796;28;20190;-72
2023/12/06 01:20:54;;;;;;;14.10;3.63;;;26.80;58.80;;;;;;4983424;28;20213;-69
2023/12/06 01:23:21;;;;;;;19.30;4.10;;;27.10;57.30;;;;;;4990605;28;20192;-69
2023/12/06 01:25:48;;;;;;;21.97;3.93;;;27.10;57.60;;;;;;4990214;28;20544;-70
2023/12/06 01:28:16;;;;;;;14.73;3.83;;;27.30;57.50;;;;;;4990094;28;20676;-70
2023/12/06 01:30:43;;;;;;;16.90;3.53;;;27.30;57.50;;;;;;4987884;28;20401;-67
2023/12/06 01:33:10;;;;;;;17.90;4.20;;;27.60;57.30;;;;;;4991687;28;20194;-69
2023/12/06 01:35:38;;;;;;;23.70;4.60;;;27.60;57.40;;;;;;4984659;28;20206;-67
2023/12/06 01:38:05;;;;;;;16.03;3.63;;;27.50;57.10;;;;;;4992149;28;20190;-67
2023/12/06 01:40:36;;;;;;;19.37;4.10;;;27.20;57.50;;;;;;4984507;28;20186;-70
2023/12/06 01:43:04;;;;;;;15.37;3.90;;;27.20;56.70;;;;;;4980779;28;20181;-71
2023/12/06 01:45:31;;;;;;;18.03;4.13;;;26.80;58.20;;;;;;4978163;28;20732;-68
2023/12/06 01:48:00;;;;;;;15.47;3.93;;;27.20;58.00;;;;;;4979371;28;20196;-71
2023/12/06 01:50:28;;;;;;;21.73;4.53;;;27.30;57.50;;;;;;4990934;28;20514;-72
2023/12/06 01:52:59;;;;;;;25.47;4.77;;;27.30;57.00;;;;;;4988767;28;20653;-68
2023/12/06 01:55:27;;;;;;;23.03;4.40;;;27.10;57.20;;;;;;4989530;28;20309;-76
2023/12/06 01:57:58;;;;;;;20.93;4.80;;;27.20;57.70;;;;;;4990858;28;20189;-72
2023/12/06 02:00:27;;;;;;;18.57;3.70;;;27.70;57.10;;;;;;4983467;28;20185;-76
2023/12/06 02:02:55;;;;;;;14.70;3.73;;;27.90;54.00;;;;;;4963691;28;20621;-74
2023/12/06 02:05:23;;;;;;;24.17;4.53;;;28.10;55.00;;;;;;4988674;28;20667;-70
2023/12/06 02:07:50;;;;;;;21.43;4.13;;;28.10;55.10;;;;;;4975628;28;20201;-69
2023/12/06 02:10:18;;;;;;;15.03;3.67;;;28.40;53.80;;;;;;4989751;28;20516;-75
2023/12/06 02:12:46;;;;;;;17.03;3.63;;;28.40;52.80;;;;;;4985203;28;20182;-70
2023/12/06 02:15:14;;;;;;;20.43;4.30;;;28.40;53.10;;;;;;4984782;28;20222;-75
2023/12/06 02:17:43;;;;;;;13.43;3.40;;;28.00;53.20;;;;;;4986887;28;20616;-70
2023/12/06 02:20:11;;;;;;;17.87;3.87;;;28.30;51.90;;;;;;4987746;28;20197;-69
2023/12/06 02:22:39;;;;;;;15.20;3.83;;;28.00;52.10;;;;;;4992245;28;20541;-70
2023/12/06 02:25:18;;;;;;;14.00;3.30;;;28.40;52.70;;;;;;4989777;28;20190;-69
2023/12/06 02:27:46;;;;;;;15.93;3.13;;;28.40;51.40;;;;;;4989958;28;20229;-70
2023/12/06 02:30:14;;;;;;;18.40;4.03;;;28.40;51.40;;;;;;4990563;28;20265;-69
2023/12/06 02:32:42;;;;;;;11.80;3.03;;;28.50;49.80;;;;;;4985697;28;20182;-76
2023/12/06 02:35:26;;;;;;;14.50;3.53;;;28.80;48.70;;;;;;4985944;28;20214;-75
2023/12/06 02:37:58;;;;;;;16.60;3.50;;;28.70;49.40;;;;;;4987210;28;20207;-68
2023/12/06 02:40:27;;;;;;;18.23;3.93;;;28.80;49.90;;;;;;4989086;28;20618;-66
2023/12/06 02:42:55;;;;;;;12.90;3.37;;;28.80;49.20;;;;;;4989636;28;20241;-70
2023/12/06 02:45:23;;;;;;;16.00;3.87;;;28.50;50.30;;;;;;4990069;28;20694;-80
2023/12/06 02:47:50;;;;;;;14.70;3.00;;;28.60;51.10;;;;;;4986220;28;20244;-66
2023/12/06 02:50:18;;;;;;;15.63;4.10;;;28.90;50.30;;;;;;4991025;28;20264;-73
2023/12/06 02:52:46;;;;;;;21.03;3.67;;;28.90;51.50;;;;;;4988584;28;20212;-68
2023/12/06 02:55:14;;;;;;;20.43;4.27;;;29.00;50.80;;;;;;4979768;28;20308;-70
2023/12/06 02:57:41;;;;;;;13.30;3.67;;;28.90;49.80;;;;;;4983924;28;20183;-74
2023/12/06 03:00:10;;;;;;;13.10;3.57;;;28.80;51.00;;;;;;4984995;28;20182;-74
2023/12/06 03:02:37;;;;;;;14.23;3.13;;;28.80;50.70;;;;;;4981421;28;20229;-77
2023/12/06 03:05:06;;;;;;;14.93;3.83;;;28.60;51.50;;;;;;4983492;28;20656;-76
2023/12/06 03:07:33;;;;;;;12.83;3.10;;;28.70;51.10;;;;;;4985817;28;20718;-71
2023/12/06 03:10:02;;;;;;;12.20;3.00;;;29.10;48.40;;;;;;4985978;28;20691;-75
2023/12/06 03:12:30;;;;;;;16.43;3.67;;;29.00;49.80;;;;;;4991134;28;20676;-77
2023/12/06 03:14:58;;;;;;;15.00;3.70;;;29.00;49.00;;;;;;4988569;28;20288;-75
2023/12/06 03:17:26;;;;;;;16.23;3.67;;;29.30;49.50;;;;;;4989992;28;20190;-77
2023/12/06 03:19:53;;;;;;;12.93;3.07;;;29.00;50.10;;;;;;4969604;28;20201;-74
2023/12/06 03:22:21;;;;;;;10.73;2.87;;;29.40;48.60;;;;;;4986828;28;20186;-82
2023/12/06 03:24:48;;;;;;;13.33;3.20;;;29.80;47.50;;;;;;4984386;28;20245;-77
2023/12/06 03:27:16;;;;;;;11.87;3.43;;;29.90;47.90;;;;;;4987408;28;20178;-80
2023/12/06 03:29:44;;;;;;;19.17;3.93;;;30.10;48.40;;;;;;4973817;28;20185;-76
2023/12/06 03:32:11;;;;;;;15.67;3.70;;;30.30;48.80;;;;;;4988288;28;20527;-73
2023/12/06 03:34:42;;;;;;;18.85;4.47;;;30.30;48.50;;;;;;4987023;28;20705;-72
2023/12/06 03:37:09;;;;;;;16.30;3.40;;;30.50;48.50;;;;;;4989583;28;20185;-72
2023/12/06 03:39:36;;;;;;;13.75;3.53;;;30.80;48.30;;;;;;4985933;28;20236;-75
2023/12/06 03:42:04;;;;;;;13.43;3.60;;;30.80;47.60;;;;;;4986284;28;20186;-71
2023/12/06 03:44:31;;;;;;;16.23;3.63;;;30.40;48.70;;;;;;4985373;28;20189;-82
2023/12/06 03:46:58;;;;;;;23.73;4.10;;;30.30;47.90;;;;;;4988054;28;20193;-79
2023/12/06 03:49:26;;;;;;;13.82;3.50;;;29.30;50.00;;;;;;4990496;28;20186;-77
2023/12/06 03:51:53;;;;;;;15.38;3.33;;;29.60;50.00;;;;;;4988870;28;20194;-77
2023/12/06 03:54:20;;;;;;;16.02;3.22;;;30.00;49.00;;;;;;4989503;28;20214;-71
2023/12/06 03:56:48;;;;;;;15.30;3.17;;;30.40;47.30;;;;;;4991869;28;20194;-78
2023/12/06 03:59:15;;;;;;;15.47;3.47;;;29.40;48.80;;;;;;4990106;28;20193;-74
2023/12/06 04:01:46;;;;;;;15.80;3.40;;;29.10;51.10;;;;;;4991838;28;20196;-77
2023/12/06 04:04:14;;;;;;;16.70;3.75;;;29.30;51.00;;;;;;4990449;28;20490;-76
2023/12/06 04:06:41;;;;;;;19.45;4.03;;;29.40;50.60;;;;;;4989458;28;20566;-76
2023/12/06 04:09:10;;;;;;;14.20;3.40;;;29.80;49.60;;;;;;4993387;28;20185;-77
2023/12/06 04:11:38;;;;;;;18.40;3.20;;;29.60;49.40;;;;;;4989172;28;20186;-72
2023/12/06 04:14:07;;;;;;;16.93;3.80;;;28.60;51.90;;;;;;4990688;28;20611;-82
2023/12/06 04:16:36;;;;;;;11.17;3.43;;;29.00;51.40;;;;;;4992050;28;20264;-76
2023/12/06 04:19:03;;;;;;;16.77;3.33;;;29.10;50.80;;;;;;4990911;28;20213;-77
2023/12/06 04:21:30;;;;;;;15.97;3.60;;;29.30;50.90;;;;;;4992051;28;20189;-78
2023/12/06 04:23:58;;;;;;;13.97;3.03;;;29.90;49.80;;;;;;4992882;28;20198;-74
2023/12/06 04:26:25;;;;;;;13.57;3.00;;;30.70;47.10;;;;;;4990551;28;20202;-80
2023/12/06 04:28:53;;;;;;;12.02;3.22;;;30.80;46.50;;;;;;4990321;28;20667;-76
2023/12/06 04:31:20;;;;;;;10.18;3.35;;;30.50;46.50;;;;;;4992025;28;20265;-80
2023/12/06 04:33:47;;;;;;;12.15;3.13;;;30.60;46.90;;;;;;4993514;28;20194;-77
2023/12/06 04:36:15;;;;;;;14.40;3.35;;;30.50;46.90;;;;;;4991443;28;20247;-76
2023/12/06 04:38:42;;;;;;;13.85;3.15;;;30.90;45.60;;;;;;4990763;28;20178;-76
2023/12/06 04:41:09;;;;;;;10.82;3.15;;;31.30;45.10;;;;;;4989948;28;20321;-75
2023/12/06 04:43:37;;;;;;;14.02;3.22;;;30.80;45.30;;;;;;4991610;28;20217;-76
2023/12/06 04:46:04;;;;;;;13.75;3.50;;;31.00;45.80;;;;;;4993754;28;20229;-77
2023/12/06 04:48:31;;;;;;;12.98;3.75;;;31.00;46.10;;;;;;4988532;28;20194;-77
2023/12/06 04:50:59;;;;;;;14.65;3.15;;;31.30;45.90;;;;;;4988884;28;20213;-75
2023/12/06 04:53:26;;;;;;;13.50;3.63;;;30.80;46.10;;;;;;4992270;28;20182;-76
2023/12/06 04:55:54;;;;;;;15.60;3.20;;;31.00;46.80;;;;;;4987216;28;20213;-74
2023/12/06 04:58:21;;;;;;;13.07;3.75;;;31.30;45.70;;;;;;4991927;28;20680;-79
2023/12/06 05:00:50;;;;;;;13.75;3.78;;;31.70;45.20;;;;;;4993121;28;20182;-75
2023/12/06 05:03:19;;;;;;;14.40;3.15;;;31.70;44.50;;;;;;4989251;28;20186;-71
2023/12/06 05:05:46;;;;;;;13.00;3.50;;;29.90;48.40;;;;;;4989237;28;20190;-68
2023/12/06 05:08:14;;;;;;;16.13;3.97;;;30.70;46.70;;;;;;4987343;28;20216;-72
2023/12/06 05:10:41;;;;;;;15.32;3.40;;;30.30;48.10;;;;;;4991965;28;20265;-70
2023/12/06 05:13:08;;;;;;;10.00;3.55;;;30.80;47.30;;;;;;4989220;28;20197;-76
2023/12/06 05:15:36;;;;;;;18.10;3.40;;;31.30;45.10;;;;;;4973063;28;20234;-72
2023/12/06 05:18:03;;;;;;;12.48;2.90;;;30.80;46.30;;;;;;4990516;28;20190;-72
2023/12/06 05:20:30;;;;;;;14.48;3.20;;;29.50;48.10;;;;;;4989390;28;20194;-69
2023/12/06 05:22:58;;;;;;;13.57;2.97;;;29.70;49.60;;;;;;4989366;28;20519;-77
2023/12/06 05:25:25;;;;;;;15.65;3.42;;;30.10;48.20;;;;;;4990528;28;20375;-69
2023/12/06 05:27:53;;;;;;;14.30;3.33;;;30.10;48.60;;;;;;4990779;28;20300;-74
2023/12/06 05:30:20;;;;;;;14.55;2.97;;;30.40;47.50;;;;;;4993553;28;20628;-72
2023/12/06 05:32:47;;;;;;;12.10;3.33;;;30.80;46.70;;;;;;4989843;28;20277;-71
2023/12/06 05:35:14;;;;;;;11.93;2.97;;;30.80;46.10;;;;;;4982754;28;20217;-73
2023/12/06 05:37:42;;;;;;;14.75;3.30;;;31.20;45.40;;;;;;4992798;28;20205;-74
2023/12/06 05:40:09;;;;;;;11.45;2.95;;;31.40;44.50;;;;;;4988227;28;20192;-75
2023/12/06 05:42:37;;;;;;;11.75;3.25;;;31.70;45.30;;;;;;4991790;28;20189;-71
2023/12/06 05:45:05;;;;;;;14.48;3.55;;;32.20;44.00;;;;;;4992356;28;20186;-71
2023/12/06 05:47:32;;;;;;;18.73;3.33;;;31.50;44.50;;;;;;4964636;28;20186;-70
2023/12/06 05:49:59;;;;;;;9.93;2.90;;;31.00;44.90;;;;;;4987471;28;20193;-71
2023/12/06 05:52:27;;;;;;;11.65;3.20;;;31.30;45.30;;;;;;4987981;28;20253;-68
2023/12/06 05:54:54;;;;;;;13.00;3.03;;;31.00;44.60;;;;;;4973580;28;20846;-70
2023/12/06 05:57:21;;;;;;;12.88;2.95;;;31.60;44.00;;;;;;4992288;28;20182;-73
2023/12/06 05:59:48;;;;;;;10.02;2.78;;;30.80;44.90;;;;;;4990934;28;20194;-73
2023/12/06 06:02:16;;;;;;;11.93;3.20;;;31.50;43.70;;;;;;4990383;28;20197;-71
2023/12/06 06:04:43;;;;;;;14.10;3.53;;;31.50;44.80;;;;;;4989086;28;20174;-74
2023/12/06 06:07:10;;;;;;;11.13;3.30;;;32.20;44.40;;;;;;4990872;28;20474;-71
2023/12/06 06:09:38;;;;;;;16.80;3.20;;;31.90;44.00;;;;;;4991934;28;20239;-76
2023/12/06 06:12:07;;;;;;;11.75;3.22;;;31.00;45.90;;;;;;4989169;28;20263;-72
2023/12/06 06:14:34;;;;;;;16.38;3.55;;;31.30;45.20;;;;;;4990188;28;20245;-75
2023/12/06 06:17:02;;;;;;;14.23;3.10;;;32.10;44.30;;;;;;4989403;28;20673;-75
2023/12/06 06:19:29;;;;;;;12.35;4.10;;;32.30;42.90;;;;;;4988697;28;20193;-71
2023/12/06 06:21:56;;;;;;;8.10;3.03;;;31.80;44.40;;;;;;4990130;28;20265;-74
2023/12/06 06:24:24;;;;;;;19.40;3.70;;;30.80;46.20;;;;;;4993139;28;20189;-76
2023/12/06 06:26:51;;;;;;;17.75;3.33;;;30.70;47.70;;;;;;4985941;28;20178;-70
2023/12/06 06:29:18;;;;;;;11.32;3.17;;;30.60;47.30;;;;;;4981149;28;20309;-74
2023/12/06 06:31:45;;;;;;;13.75;3.10;;;31.00;46.90;;;;;;4983220;28;20181;-72
2023/12/06 06:34:13;;;;;;;17.58;3.53;;;31.00;47.00;;;;;;4981512;28;20178;-73
2023/12/06 06:36:40;;;;;;;14.02;2.90;;;30.60;47.60;;;;;;4987624;28;20193;-72
2023/12/06 06:39:07;;;;;;;12.63;3.28;;;30.30;47.50;;;;;;4980555;28;20210;-74
2023/12/06 06:41:35;;;;;;;13.85;3.22;;;29.80;48.20;;;;;;4981105;28;20183;-76
2023/12/06 06:44:04;;;;;;;18.70;3.67;;;29.40;49.20;;;;;;4988631;28;20610;-72
2023/12/06 06:46:31;;;;;;;17.17;3.60;;;30.20;47.90;;;;;;4979839;28;20208;-74
2023/12/06 06:48:58;;;;;;;11.57;3.00;;;29.70;49.50;;;;;;4975735;28;20228;-76
2023/12/06 06:51:36;;;;;;;19.30;3.05;;;29.20;49.80;;;;;;4985564;28;20286;-74
2023/12/06 06:54:07;;;;;;;13.45;3.10;;;29.00;50.60;;;;;;4980632;28;20333;-74
2023/12/06 06:56:35;;;;;;;16.38;3.75;;;29.20;50.50;;;;;;4984842;28;20185;-75
2023/12/06 06:59:02;;;;;;;14.50;3.60;;;29.60;49.80;;;;;;4989364;28;20178;-77
2023/12/06 07:01:30;;;;;;;15.98;3.20;;;29.30;50.30;;;;;;4989215;28;20521;-71
2023/12/06 07:03:57;;;;;;;17.00;3.90;;;28.70;51.10;;;;;;4980101;28;20548;-73
2023/12/06 07:06:24;;;;;;;12.40;3.13;;;28.40;52.70;;;;;;4987840;28;20256;-73
2023/12/06 07:08:52;;;;;;;15.57;3.70;;;28.10;52.40;;;;;;4989741;28;20748;-71
2023/12/06 07:11:19;;;;;;;16.20;3.57;;;26.80;56.50;;;;;;4978094;28;20648;-74
2023/12/06 07:13:46;;;;;;;22.07;3.90;;;26.40;57.50;;;;;;4991718;28;20236;-74
2023/12/06 07:16:13;;;;;;;13.90;3.73;;;26.30;58.00;;;;;;4978781;28;20218;-72
2023/12/06 07:18:41;;;;;;;14.87;3.63;;;26.00;59.90;;;;;;4978560;28;20513;-75
2023/12/06 07:21:08;;;;;;;18.17;3.73;;;25.90;60.40;;;;;;4982703;28;20193;-76
2023/12/06 07:23:36;;;;;;;17.03;3.50;;;25.80;61.60;;;;;;4980657;28;20260;-75
2023/12/06 07:26:06;;;;;;;20.60;4.03;;;25.80;61.60;;;;;;4987725;28;20192;-74
2023/12/06 07:28:33;;;;;;;16.50;4.10;;;25.80;61.70;;;;;;4991026;28;20229;-72
2023/12/06 07:31:00;;;;;;;20.77;4.17;;;25.80;62.20;;;;;;4984591;28;20182;-71
2023/12/06 07:33:28;;;;;;;22.37;3.83;;;25.80;61.80;;;;;;4991200;28;20202;-71
2023/12/06 07:35:55;;;;;;;14.40;3.43;;;25.50;62.50;;;;;;4987187;28;20676;-73
2023/12/06 07:38:25;;;;;;;19.67;4.00;;;25.80;62.00;;;;;;4995202;28;20185;-74
2023/12/06 07:40:52;;;;;;;18.27;4.20;;;25.80;61.40;;;;;;4985553;28;20190;-72
2023/12/06 07:43:19;;;;;;;15.87;3.77;;;25.90;60.80;;;;;;4984615;28;20277;-75
2023/12/06 07:45:47;;;;;;;16.17;3.80;;;25.50;61.50;;;;;;4990075;28;20174;-71
2023/12/06 07:48:15;;;;;;;15.57;3.80;;;25.40;62.30;;;;;;4989490;28;20216;-71
2023/12/06 07:50:42;;;;;;;18.17;3.57;;;25.50;62.30;;;;;;4984965;28;20699;-73
2023/12/06 07:53:10;;;;;;;16.07;3.80;;;25.30;62.60;;;;;;4986149;28;20273;-73
2023/12/06 07:55:39;;;;;;;16.53;3.90;;;24.90;63.70;;;;;;4984252;28;20222;-75
2023/12/06 07:58:07;;;;;;;15.70;3.30;;;24.60;64.40;;;;;;4989924;28;20198;-71
2023/12/06 08:00:37;;;;;;;14.50;3.20;;;24.50;64.90;;;;;;4976581;28;20210;-71
2023/12/06 08:03:05;;;;;;;23.50;3.67;;;24.50;64.20;;;;;;4986080;28;20248;-72
2023/12/06 08:05:32;;;;;;;16.47;3.83;;;24.30;65.90;;;;;;4985967;28;20712;-72
2023/12/06 08:07:59;;;;;;;14.03;3.20;;;24.30;66.30;;;;;;4982696;28;20201;-71
2023/12/06 08:10:29;;;;;;;16.13;3.53;;;24.30;66.30;;;;;;4987994;28;20183;-73
2023/12/06 08:12:57;;;;;;;16.27;4.20;;;24.10;65.20;;;;;;4966692;28;20273;-73
2023/12/06 08:15:26;;;;;;;20.23;3.40;;;23.90;66.10;;;;;;4989135;28;20606;-72
2023/12/06 08:17:53;;;;;;;22.43;3.80;;;23.90;67.10;;;;;;4987081;28;20289;-72
2023/12/06 08:20:21;;;;;;;16.57;3.87;;;23.90;66.70;;;;;;4991822;28;20186;-72
2023/12/06 08:22:48;;;;;;;14.53;3.50;;;23.80;66.80;;;;;;4989785;28;20193;-71
2023/12/06 08:25:15;;;;;;;19.93;4.03;;;23.70;67.90;;;;;;4983949;28;20663;-72
2023/12/06 08:27:44;;;;;;;21.77;4.57;;;23.70;67.60;;;;;;4971122;28;20273;-74
2023/12/06 08:30:11;;;;;;;23.17;4.03;;;23.80;68.30;;;;;;4983640;28;20209;-72
2023/12/06 08:32:39;;;;;;;19.13;3.40;;;23.80;67.10;;;;;;4987178;28;20185;-72
2023/12/06 08:35:06;;;;;;;17.90;3.63;;;23.80;66.20;;;;;;4991856;28;20222;-73
2023/12/06 08:37:33;;;;;;;16.53;3.33;;;23.60;66.50;;;;;;4994153;28;20270;-75
2023/12/06 08:40:02;;;;;;;21.33;4.00;;;23.50;67.20;;;;;;4987882;28;20186;-72
2023/12/06 08:42:29;;;;;;;15.73;3.63;;;23.40;67.40;;;;;;4991811;28;20183;-73
2023/12/06 08:44:57;;;;;;;24.43;4.20;;;23.30;67.90;;;;;;4992239;28;20192;-72
2023/12/06 08:47:24;;;;;;;22.90;4.40;;;23.30;68.50;;;;;;4981768;28;20238;-73
2023/12/06 08:49:51;;;;;;;17.03;3.37;;;23.30;68.30;;;;;;4976237;28;20190;-72
2023/12/06 08:52:19;;;;;;;15.90;3.90;;;23.20;68.50;;;;;;4993072;28;20209;-72
2023/12/06 08:54:46;;;;;;;19.77;3.63;;;23.00;68.90;;;;;;4988816;28;20218;-72
2023/12/06 08:57:13;;;;;;;15.33;3.73;;;23.00;68.70;;;;;;4993518;28;20190;-71
2023/12/06 08:59:41;;;;;;;19.83;3.70;;;22.90;68.80;;;;;;4990005;28;20182;-72
2023/12/06 09:02:08;;;;;;;19.17;3.23;;;22.90;68.80;;;;;;4976182;28;20194;-72
2023/12/06 09:04:35;;;;;;;16.37;3.40;;;22.90;68.70;;;;;;4993500;28;20190;-72
2023/12/06 09:07:03;;;;;;;19.23;3.93;;;22.80;68.70;;;;;;4989212;28;20229;-72
2023/12/06 09:09:30;;;;;;;13.10;3.30;;;22.80;68.80;;;;;;4981789;28;20182;-71
2023/12/06 09:11:58;;;;;;;14.17;3.27;;;22.80;68.90;;;;;;4991425;28;20189;-72
2023/12/06 09:14:26;;;;;;;10.80;3.07;;;22.80;69.10;;;;;;4995114;28;20190;-72
2023/12/06 09:16:53;;;;;;;15.60;3.53;;;22.70;69.60;;;;;;4994813;28;20189;-73
2023/12/06 09:19:21;;;;;;;18.93;3.77;;;22.80;69.50;;;;;;4982578;28;20231;-75
2023/12/06 09:21:48;;;;;;;19.83;3.47;;;22.80;69.90;;;;;;4994731;28;20557;-73
2023/12/06 09:24:15;;;;;;;18.10;3.43;;;22.70;70.00;;;;;;4989656;28;20208;-74
2023/12/06 09:26:44;;;;;;;24.40;4.50;;;22.80;70.20;;;;;;4987335;28;20192;-73
2023/12/06 09:29:12;;;;;;;16.80;3.40;;;22.80;70.90;;;;;;4993426;28;20245;-72
2023/12/06 09:31:39;;;;;;;14.63;3.30;;;22.70;70.60;;;;;;4990742;28;20197;-73
2023/12/06 09:34:07;;;;;;;17.07;3.50;;;22.50;70.80;;;;;;4985361;28;20182;-72
2023/12/06 09:36:34;;;;;;;16.97;3.43;;;22.40;70.60;;;;;;4990631;28;20198;-74
2023/12/06 09:39:04;;;;;;;21.83;3.90;;;22.40;71.20;;;;;;4994846;28;20587;-72
2023/12/06 09:41:33;;;;;;;17.30;3.87;;;22.40;71.20;;;;;;4991119;28;20219;-74
2023/12/06 09:44:01;;;;;;;23.53;3.83;;;22.40;71.00;;;;;;4991519;28;20185;-73
2023/12/06 09:46:29;;;;;;;19.43;3.77;;;22.50;71.40;;;;;;4994768;28;20240;-74
2023/12/06 09:48:56;;;;;;;19.97;3.57;;;22.50;71.40;;;;;;4994542;28;20186;-73
2023/12/06 09:51:24;;;;;;;23.27;3.70;;;22.50;70.70;;;;;;4976325;28;20174;-74
2023/12/06 09:53:52;;;;;;;16.43;4.30;;;22.40;71.10;;;;;;4994566;28;20668;-72
2023/12/06 09:56:19;;;;;;;19.70;3.27;;;22.40;71.30;;;;;;4994682;28;20628;-72
2023/12/06 09:58:47;;;;;;;15.57;3.73;;;22.40;70.80;;;;;;4993731;28;20221;-73
2023/12/06 10:01:14;;;;;;;13.37;3.33;;;22.40;70.90;;;;;;4994525;28;20186;-72
2023/12/06 10:03:42;;;;;;;20.20;4.10;;;22.40;70.90;;;;;;4987468;28;20189;-72
2023/12/06 10:06:09;;;;;;;21.07;4.13;;;22.30;71.20;;;;;;4993486;28;20246;-75
2023/12/06 10:08:37;;;;;;;15.07;3.10;;;22.50;71.60;;;;;;4993956;28;20182;-74
2023/12/06 10:11:09;;;;;;;17.33;3.23;;;22.50;71.30;;;;;;4987868;28;20190;-74
2023/12/06 10:13:41;;;;;;;17.60;4.00;;;22.40;71.10;;;;;;4990462;28;20213;-75
2023/12/06 10:16:19;;;;;;;17.03;3.90;;;22.30;71.60;;;;;;4991833;28;20554;-74
2023/12/06 10:18:52;;;;;;;18.37;4.20;;;22.30;72.00;;;;;;4981585;28;20691;-73
2023/12/06 10:21:20;;;;;;;20.67;4.17;;;22.30;72.40;;;;;;4989552;28;20186;-74
2023/12/06 10:23:55;;;;;;;13.53;3.37;;;22.30;72.60;;;;;;4988304;28;20192;-74
2023/12/06 10:26:23;;;;;;;13.43;3.60;;;22.30;72.60;;;;;;4993474;28;20227;-74
2023/12/06 10:28:50;;;;;;;14.97;3.40;;;22.30;72.70;;;;;;4978464;28;20314;-75
2023/12/06 10:31:17;;;;;;;16.07;4.23;;;22.30;72.90;;;;;;4990135;28;20228;-75
2023/12/06 10:33:46;;;;;;;17.33;3.80;;;22.30;73.40;;;;;;4983255;28;20197;-74
2023/12/06 10:36:14;;;;;;;22.23;4.53;;;22.40;73.10;;;;;;4989840;28;20209;-72
2023/12/06 10:38:43;;;;;;;19.23;3.97;;;22.30;73.20;;;;;;4989931;28;20196;-73
2023/12/06 10:41:11;;;;;;;14.50;3.83;;;22.30;73.50;;;;;;4991278;28;20277;-74
2023/12/06 10:43:41;;;;;;;20.30;4.47;;;22.30;74.00;;;;;;4992859;28;20316;-72
2023/12/06 10:46:09;;;;;;;19.10;4.50;;;22.10;74.10;;;;;;4993631;28;20201;-74
2023/12/06 10:48:37;;;;;;;19.53;3.73;;;22.10;74.60;;;;;;4993125;28;20632;-72
2023/12/06 10:51:07;;;;;;;26.03;4.80;;;22.10;75.00;;;;;;4988197;28;20649;-74
2023/12/06 10:53:36;;;;;;;17.73;3.80;;;22.10;74.90;;;;;;4992362;28;20185;-73
2023/12/06 10:56:04;;;;;;;16.57;3.93;;;22.20;75.10;;;;;;4981410;28;20201;-73
2023/12/06 10:58:31;;;;;;;29.60;4.63;;;22.10;75.30;;;;;;4976288;28;20634;-70
2023/12/06 11:00:59;;;;;;;20.87;4.10;;;22.10;75.00;;;;;;4993529;28;20193;-72
2023/12/06 11:03:26;;;;;;;17.17;3.70;;;22.10;75.30;;;;;;4989517;28;20178;-72
2023/12/06 11:05:57;;;;;;;19.00;4.37;;;22.00;75.40;;;;;;4985690;28;20225;-71
2023/12/06 11:08:27;;;;;;;19.27;3.30;;;22.00;75.50;;;;;;4995059;28;20648;-71
2023/12/06 11:11:16;;;;;;;16.90;3.87;;;22.00;75.70;;;;;;4998916;28;20687;-73
2023/12/06 11:13:50;;;;;;;19.00;3.83;;;22.00;76.00;;;;;;4993049;28;20182;-71
2023/12/06 11:16:53;;;;;;;19.77;3.50;;;22.00;76.00;;;;;;4993013;28;20594;-72
2023/12/06 11:19:21;;;;;;;26.23;3.97;;;22.00;76.10;;;;;;4986141;28;20244;-72
2023/12/06 11:21:48;;;;;;;20.00;3.80;;;22.00;76.10;;;;;;4991459;28;20193;-71
2023/12/06 11:24:17;;;;;;;15.67;3.47;;;22.00;76.30;;;;;;4991470;28;20186;-73
2023/12/06 11:26:45;;;;;;;17.47;4.33;;;22.00;76.00;;;;;;4980749;28;20190;-71
2023/12/06 11:29:13;;;;;;;21.70;3.90;;;22.00;76.20;;;;;;4991969;28;20225;-73
2023/12/06 11:31:40;;;;;;;20.90;4.30;;;21.90;76.40;;;;;;4993003;28;20193;-71
2023/12/06 11:34:12;;;;;;;22.33;3.60;;;21.90;76.60;;;;;;4993245;28;20182;-73
2023/12/06 11:36:40;;;;;;;20.33;4.40;;;21.90;76.50;;;;;;4974777;28;20189;-71
2023/12/06 11:39:21;;;;;;;21.50;4.27;;;21.90;76.90;;;;;;4975537;28;20625;-73
2023/12/06 11:41:56;;;;;;;17.53;4.13;;;21.80;76.70;;;;;;4990145;28;20659;-71
2023/12/06 11:44:23;;;;;;;20.17;4.07;;;21.90;76.90;;;;;;4988149;28;20182;-71
2023/12/06 11:46:52;;;;;;;18.90;3.60;;;21.90;76.80;;;;;;4984578;28;20272;-72
2023/12/06 11:49:28;;;;;;;26.37;3.53;;;21.90;76.80;;;;;;4993029;28;20193;-71
2023/12/06 11:52:00;;;;;;;23.07;4.03;;;21.90;76.60;;;;;;4986074;28;20212;-71
2023/12/06 11:54:28;;;;;;;19.50;3.33;;;21.80;76.70;;;;;;4980567;28;20633;-73
2023/12/06 11:57:15;;;;;;;27.67;4.13;;;21.90;76.90;;;;;;4992389;28;20189;-71
2023/12/06 11:59:44;;;;;;;20.60;3.97;;;21.90;76.90;;;;;;4993123;28;20293;-73
2023/12/06 12:02:11;;;;;;;17.43;3.70;;;21.80;77.10;;;;;;4992348;28;20198;-70
2023/12/06 12:04:39;;;;;;;17.37;3.93;;;21.80;77.10;;;;;;4992970;28;20221;-71
2023/12/06 12:07:06;;;;;;;16.00;3.53;;;21.80;77.20;;;;;;4992236;28;20599;-71
2023/12/06 12:09:34;;;;;;;18.37;3.63;;;21.80;77.20;;;;;;4993154;28;20185;-71
2023/12/06 12:12:01;;;;;;;16.20;3.70;;;21.90;77.20;;;;;;4981370;28;20187;-71
2023/12/06 12:14:37;;;;;;;23.37;4.60;;;21.80;77.10;;;;;;4986293;28;20182;-71
2023/12/06 12:17:05;;;;;;;16.37;3.33;;;21.80;77.10;;;;;;4996182;28;20248;-71
2023/12/06 12:19:32;;;;;;;17.40;3.27;;;21.70;77.30;;;;;;4995630;28;20225;-71
2023/12/06 12:22:04;;;;;;;19.50;3.93;;;21.80;77.50;;;;;;4995725;28;20260;-71
2023/12/06 12:24:31;;;;;;;18.70;4.17;;;21.70;77.50;;;;;;4991215;28;20182;-71
2023/12/06 12:26:58;;;;;;;21.10;4.00;;;21.70;77.70;;;;;;4994055;28;20216;-72
2023/12/06 12:29:26;;;;;;;17.40;3.73;;;21.60;77.80;;;;;;4993841;28;20221;-72
2023/12/06 12:31:53;;;;;;;19.33;4.40;;;21.60;78.00;;;;;;4987252;28;20178;-71
2023/12/06 12:34:21;;;;;;;15.03;3.10;;;21.70;78.10;;;;;;4993197;28;20186;-72
2023/12/06 12:36:48;;;;;;;14.67;3.60;;;21.70;78.20;;;;;;4994089;28;20637;-71
2023/12/06 12:39:16;;;;;;;18.13;3.60;;;21.70;78.10;;;;;;4995937;28;20670;-71
2023/12/06 12:41:44;;;;;;;20.00;3.67;;;21.80;77.90;;;;;;4994234;28;20198;-71